createdAt,value
2023-05-22T00:00:42.195Z,0.00
2023-05-22T00:01:42.188Z,0.00
2023-05-22T00:02:42.267Z,0.00
2023-05-22T00:03:42.169Z,0.00
2023-05-22T00:04:42.231Z,0.00
2023-05-22T00:05:42.156Z,0.00
2023-05-22T00:06:42.129Z,0.00
2023-05-22T00:07:42.123Z,0.00
2023-05-22T00:08:42.140Z,0.00
2023-05-22T00:09:42.084Z,0.00
2023-05-22T00:10:42.087Z,0.00
2023-05-22T00:11:42.056Z,0.00
2023-05-22T00:12:42.054Z,0.00
2023-05-22T00:13:42.049Z,0.00
2023-05-22T00:14:42.082Z,0.00
2023-05-22T00:15:42.018Z,0.00
2023-05-22T00:16:42.022Z,0.00
2023-05-22T00:17:42.056Z,0.00
2023-05-22T00:18:41.986Z,0.00
2023-05-22T00:19:41.989Z,0.00
2023-05-22T00:20:42.016Z,0.00
2023-05-22T00:21:41.948Z,0.00
2023-05-22T00:22:41.950Z,0.00
2023-05-22T00:23:41.919Z,0.00
2023-05-22T00:24:41.915Z,0.00
2023-05-22T00:25:41.932Z,0.00
2023-05-22T00:26:41.921Z,0.00
2023-05-22T00:27:41.891Z,0.00
2023-05-22T00:28:41.862Z,0.00
2023-05-22T00:29:41.891Z,0.00
2023-05-22T00:30:42.078Z,0.00
2023-05-22T00:31:41.866Z,0.00
2023-05-22T00:32:41.900Z,0.00
2023-05-22T00:33:41.818Z,0.00
2023-05-22T00:34:41.918Z,0.00
2023-05-22T00:35:41.805Z,0.00
2023-05-22T00:36:41.782Z,0.00
2023-05-22T00:37:41.795Z,0.00
2023-05-22T00:38:41.758Z,0.00
2023-05-22T00:39:41.773Z,0.00
2023-05-22T00:40:41.968Z,0.00
2023-05-22T00:41:41.716Z,0.00
2023-05-22T00:42:41.706Z,0.00
2023-05-22T00:43:41.718Z,0.00
2023-05-22T00:44:41.713Z,0.00
2023-05-22T00:45:41.730Z,0.00
2023-05-22T00:46:41.698Z,0.00
2023-05-22T00:47:41.654Z,0.00
2023-05-22T00:48:41.676Z,0.00
2023-05-22T00:49:41.618Z,0.00
2023-05-22T00:50:41.730Z,0.00
2023-05-22T00:51:41.595Z,0.00
2023-05-22T00:52:41.586Z,0.00
2023-05-22T00:53:41.578Z,0.00
2023-05-22T00:54:41.615Z,0.00
2023-05-22T00:55:41.571Z,0.00
2023-05-22T00:56:41.558Z,0.00
2023-05-22T00:57:41.545Z,0.00
2023-05-22T00:58:41.526Z,0.00
2023-05-22T00:59:41.555Z,0.00
2023-05-22T01:00:41.663Z,0.00
2023-05-22T01:01:41.558Z,0.00
2023-05-22T01:02:41.561Z,0.00
2023-05-22T01:03:41.560Z,0.00
2023-05-22T01:04:41.464Z,0.00
2023-05-22T01:05:41.492Z,0.00
2023-05-22T01:06:41.477Z,0.00
2023-05-22T01:07:41.452Z,0.00
2023-05-22T01:08:41.399Z,0.00
2023-05-22T01:09:41.399Z,0.00
2023-05-22T01:10:41.728Z,0.00
2023-05-22T01:11:41.422Z,0.00
2023-05-22T01:12:41.381Z,0.00
2023-05-22T01:13:41.345Z,0.00
2023-05-22T01:14:41.340Z,0.00
2023-05-22T01:15:41.325Z,0.00
2023-05-22T01:16:41.584Z,0.00
2023-05-22T01:17:41.357Z,0.00
2023-05-22T01:18:41.321Z,0.00
2023-05-22T01:19:41.286Z,0.00
2023-05-22T01:20:41.609Z,0.00
2023-05-22T01:21:41.288Z,0.00
2023-05-22T01:22:41.287Z,0.00
2023-05-22T01:23:41.234Z,0.00
2023-05-22T01:24:41.216Z,0.00
2023-05-22T01:25:41.207Z,0.00
2023-05-22T01:26:41.209Z,0.00
2023-05-22T01:27:41.251Z,0.00
2023-05-22T01:28:41.239Z,0.00
2023-05-22T01:29:41.156Z,0.00
2023-05-22T01:30:41.206Z,0.00
2023-05-22T01:31:41.176Z,0.00
2023-05-22T01:32:41.212Z,0.00
2023-05-22T01:33:41.261Z,0.00
2023-05-22T01:34:41.111Z,0.00
2023-05-22T01:35:41.099Z,0.00
2023-05-22T01:36:41.090Z,0.00
2023-05-22T01:37:41.098Z,0.00
2023-05-22T01:38:41.100Z,0.00
2023-05-22T01:39:41.041Z,0.00
2023-05-22T01:40:41.212Z,0.00
2023-05-22T01:41:41.089Z,0.00
2023-05-22T01:42:41.039Z,0.00
2023-05-22T01:43:41.038Z,0.00
2023-05-22T01:44:40.994Z,0.00
2023-05-22T01:45:41.066Z,0.00
2023-05-22T01:46:40.963Z,0.00
2023-05-22T01:47:41.003Z,0.00
2023-05-22T01:48:40.934Z,0.00
2023-05-22T01:49:40.953Z,0.00
2023-05-22T01:50:41.253Z,0.00
2023-05-22T01:51:40.923Z,0.00
2023-05-22T01:52:40.914Z,0.00
2023-05-22T01:53:40.888Z,0.00
2023-05-22T01:54:40.918Z,0.00
2023-05-22T01:55:40.864Z,0.00
2023-05-22T01:56:40.870Z,0.00
2023-05-22T01:57:40.905Z,0.00
2023-05-22T01:58:40.837Z,0.00
2023-05-22T01:59:40.833Z,0.00
2023-05-22T02:00:40.922Z,0.00
2023-05-22T02:01:40.813Z,0.00
2023-05-22T02:02:40.892Z,0.00
2023-05-22T02:03:40.915Z,0.00
2023-05-22T02:04:40.755Z,0.00
2023-05-22T02:05:40.767Z,0.00
2023-05-22T02:06:40.752Z,0.00
2023-05-22T02:07:40.794Z,0.00
2023-05-22T02:08:40.714Z,0.00
2023-05-22T02:09:40.709Z,0.00
2023-05-22T02:10:40.957Z,0.00
2023-05-22T02:11:40.683Z,0.00
2023-05-22T02:12:40.725Z,0.00
2023-05-22T02:13:40.703Z,0.00
2023-05-22T02:14:40.652Z,0.00
2023-05-22T02:15:40.683Z,0.00
2023-05-22T02:16:40.629Z,0.00
2023-05-22T02:17:40.716Z,0.00
2023-05-22T02:18:40.601Z,0.00
2023-05-22T02:19:40.642Z,0.00
2023-05-22T02:20:40.864Z,0.00
2023-05-22T02:21:40.566Z,0.00
2023-05-22T02:22:40.555Z,0.00
2023-05-22T02:23:40.565Z,0.00
2023-05-22T02:24:40.516Z,0.00
2023-05-22T02:25:40.537Z,0.00
2023-05-22T02:26:40.531Z,0.00
2023-05-22T02:27:40.499Z,0.00
2023-05-22T02:28:40.486Z,0.00
2023-05-22T02:29:40.489Z,0.00
2023-05-22T02:30:40.786Z,0.00
2023-05-22T02:31:40.559Z,0.00
2023-05-22T02:32:40.469Z,0.00
2023-05-22T02:33:40.452Z,0.00
2023-05-22T02:34:40.446Z,0.00
2023-05-22T02:35:40.444Z,0.00
2023-05-22T02:36:40.396Z,0.00
2023-05-22T02:37:40.406Z,4.00
2023-05-22T02:38:40.358Z,4.00
2023-05-22T02:39:40.348Z,4.00
2023-05-22T02:40:40.620Z,4.00
2023-05-22T02:41:40.359Z,0.00
2023-05-22T02:42:40.346Z,4.00
2023-05-22T02:43:40.359Z,4.00
2023-05-22T02:44:40.288Z,4.00
2023-05-22T02:45:40.321Z,4.00
2023-05-22T02:46:40.333Z,4.00
2023-05-22T02:47:40.316Z,8.00
2023-05-22T02:48:40.265Z,8.00
2023-05-22T02:49:40.226Z,12.00
2023-05-22T02:50:40.510Z,12.00
2023-05-22T02:51:40.233Z,12.00
2023-05-22T02:52:40.232Z,12.00
2023-05-22T02:53:40.203Z,16.00
2023-05-22T02:54:40.190Z,16.00
2023-05-22T02:55:40.154Z,20.00
2023-05-22T02:56:40.161Z,24.00
2023-05-22T02:57:40.170Z,24.00
2023-05-22T02:58:40.206Z,28.00
2023-05-22T02:59:40.126Z,36.00
2023-05-22T03:00:40.360Z,40.00
2023-05-22T03:01:40.133Z,44.00
2023-05-22T03:02:40.188Z,48.00
2023-05-22T03:03:40.175Z,52.00
2023-05-22T03:04:40.076Z,60.00
2023-05-22T03:05:40.133Z,68.00
2023-05-22T03:06:40.066Z,76.00
2023-05-22T03:07:40.036Z,84.00
2023-05-22T03:08:40.049Z,88.00
2023-05-22T03:09:40.038Z,96.00
2023-05-22T03:10:40.314Z,104.00
2023-05-22T03:11:39.990Z,112.00
2023-05-22T03:12:39.971Z,128.00
2023-05-22T03:13:39.960Z,136.00
2023-05-22T03:14:39.942Z,148.00
2023-05-22T03:15:39.987Z,160.00
2023-05-22T03:16:39.946Z,176.00
2023-05-22T03:17:39.995Z,192.00
2023-05-22T03:18:39.907Z,208.00
2023-05-22T03:19:39.890Z,228.00
2023-05-22T03:20:40.182Z,248.00
2023-05-22T03:21:39.880Z,276.00
2023-05-22T03:22:39.888Z,296.00
2023-05-22T03:23:39.831Z,328.00
2023-05-22T03:24:39.852Z,356.00
2023-05-22T03:25:39.825Z,388.00
2023-05-22T03:26:39.831Z,424.00
2023-05-22T03:27:39.825Z,456.00
2023-05-22T03:28:39.812Z,492.00
2023-05-22T03:29:39.818Z,532.00
2023-05-22T03:30:39.978Z,576.00
2023-05-22T03:31:39.752Z,616.00
2023-05-22T03:32:39.825Z,660.00
2023-05-22T03:33:39.772Z,704.00
2023-05-22T03:34:39.717Z,748.00
2023-05-22T03:35:39.740Z,800.00
2023-05-22T03:36:39.722Z,848.00
2023-05-22T03:37:39.687Z,892.00
2023-05-22T03:38:39.686Z,944.00
2023-05-22T03:39:39.695Z,992.00
2023-05-22T03:40:40.021Z,1048.00
2023-05-22T03:41:39.681Z,1096.00
2023-05-22T03:42:39.641Z,1148.00
2023-05-22T03:43:39.612Z,1204.00
2023-05-22T03:44:39.605Z,1260.00
2023-05-22T03:45:39.673Z,1316.00
2023-05-22T03:46:39.608Z,1372.00
2023-05-22T03:47:39.713Z,1432.00
2023-05-22T03:48:39.571Z,1484.00
2023-05-22T03:49:39.559Z,1544.00
2023-05-22T03:50:39.702Z,1604.00
2023-05-22T03:51:39.559Z,1656.00
2023-05-22T03:52:39.517Z,1712.00
2023-05-22T03:53:39.509Z,1772.00
2023-05-22T03:54:39.519Z,1828.00
2023-05-22T03:55:39.489Z,1884.00
2023-05-22T03:56:39.480Z,1940.00
2023-05-22T03:57:39.461Z,2000.00
2023-05-22T03:58:39.456Z,2064.00
2023-05-22T03:59:39.458Z,2124.00
2023-05-22T04:00:39.628Z,2180.00
2023-05-22T04:01:39.550Z,2236.00
2023-05-22T04:02:39.494Z,2292.00
2023-05-22T04:03:39.419Z,2348.00
2023-05-22T04:04:39.427Z,2408.00
2023-05-22T04:05:39.382Z,2472.00
2023-05-22T04:06:39.363Z,2536.00
2023-05-22T04:07:39.348Z,2604.00
2023-05-22T04:08:39.348Z,2668.00
2023-05-22T04:09:39.314Z,2736.00
2023-05-22T04:10:39.560Z,2808.00
2023-05-22T04:11:39.304Z,2880.00
2023-05-22T04:12:39.301Z,2952.00
2023-05-22T04:13:39.292Z,3032.00
2023-05-22T04:14:39.245Z,3104.00
2023-05-22T04:15:39.291Z,3180.00
2023-05-22T04:16:39.221Z,3256.00
2023-05-22T04:17:39.278Z,3336.00
2023-05-22T04:18:39.260Z,3408.00
2023-05-22T04:19:39.220Z,3488.00
2023-05-22T04:20:39.486Z,3560.00
2023-05-22T04:21:39.173Z,3636.00
2023-05-22T04:22:39.149Z,3708.00
2023-05-22T04:23:39.182Z,3788.00
2023-05-22T04:24:39.167Z,3860.00
2023-05-22T04:25:39.183Z,3936.00
2023-05-22T04:26:41.737Z,4012.00
2023-05-22T04:27:39.119Z,4084.00
2023-05-22T04:28:39.123Z,4152.00
2023-05-22T04:29:39.094Z,4224.00
2023-05-22T04:30:39.330Z,4296.00
2023-05-22T04:31:39.109Z,4368.00
2023-05-22T04:32:39.051Z,4452.00
2023-05-22T04:33:39.030Z,4532.00
2023-05-22T04:34:39.036Z,4608.00
2023-05-22T04:35:39.029Z,4688.00
2023-05-22T04:36:39.075Z,4760.00
2023-05-22T04:37:39.005Z,4824.00
2023-05-22T04:38:38.989Z,4896.00
2023-05-22T04:39:38.956Z,4960.00
2023-05-22T04:40:39.200Z,5036.00
2023-05-22T04:41:38.944Z,5128.00
2023-05-22T04:42:38.978Z,5224.00
2023-05-22T04:43:38.944Z,5300.00
2023-05-22T04:44:38.896Z,5380.00
2023-05-22T04:45:38.875Z,5448.00
2023-05-22T04:46:38.967Z,5524.00
2023-05-22T04:47:38.920Z,5608.00
2023-05-22T04:48:38.876Z,5692.00
2023-05-22T04:49:38.836Z,5764.00
2023-05-22T04:50:39.160Z,5840.00
2023-05-22T04:51:38.858Z,5916.00
2023-05-22T04:52:38.831Z,5992.00
2023-05-22T04:53:38.876Z,6064.00
2023-05-22T04:54:38.791Z,6128.00
2023-05-22T04:55:38.769Z,6180.00
2023-05-22T04:56:38.767Z,6244.00
2023-05-22T04:57:38.761Z,6312.00
2023-05-22T04:58:38.763Z,6392.00
2023-05-22T04:59:38.751Z,6440.00
2023-05-22T05:00:39.089Z,6484.00
2023-05-22T05:01:38.834Z,6508.00
2023-05-22T05:02:38.736Z,6516.00
2023-05-22T05:03:38.726Z,6548.00
2023-05-22T05:04:38.680Z,6612.00
2023-05-22T05:05:38.656Z,6692.00
2023-05-22T05:06:38.657Z,6792.00
2023-05-22T05:07:38.704Z,6884.00
2023-05-22T05:08:38.654Z,6972.00
2023-05-22T05:09:38.620Z,7068.00
2023-05-22T05:10:38.733Z,7172.00
2023-05-22T05:11:38.613Z,7272.00
2023-05-22T05:12:38.595Z,7372.00
2023-05-22T05:13:38.583Z,7476.00
2023-05-22T05:14:38.563Z,7568.00
2023-05-22T05:15:38.537Z,7660.00
2023-05-22T05:16:38.545Z,7744.00
2023-05-22T05:17:38.577Z,7836.00
2023-05-22T05:18:38.532Z,7920.00
2023-05-22T05:19:38.547Z,8000.00
2023-05-22T05:20:38.745Z,8084.00
2023-05-22T05:21:38.468Z,8208.00
2023-05-22T05:22:38.474Z,8328.00
2023-05-22T05:23:38.466Z,8432.00
2023-05-22T05:24:38.453Z,8548.00
2023-05-22T05:25:38.460Z,8696.00
2023-05-22T05:26:38.447Z,8840.00
2023-05-22T05:27:38.421Z,8972.00
2023-05-22T05:28:38.458Z,9076.00
2023-05-22T05:29:38.397Z,9192.00
2023-05-22T05:30:38.872Z,9272.00
2023-05-22T05:31:38.389Z,9340.00
2023-05-22T05:32:38.400Z,9392.00
2023-05-22T05:33:38.366Z,9448.00
2023-05-22T05:34:38.362Z,9516.00
2023-05-22T05:35:39.205Z,9604.00
2023-05-22T05:36:38.311Z,9708.00
2023-05-22T05:37:38.293Z,9816.00
2023-05-22T05:38:38.311Z,9940.00
2023-05-22T05:39:38.294Z,10076.00
2023-05-22T05:40:38.529Z,10212.00
2023-05-22T05:41:38.249Z,10364.00
2023-05-22T05:42:38.233Z,10528.00
2023-05-22T05:43:38.256Z,10700.00
2023-05-22T05:44:38.235Z,10900.00
2023-05-22T05:45:38.189Z,11252.00
2023-05-22T05:46:38.336Z,12092.00
2023-05-22T05:47:38.300Z,13192.00
2023-05-22T05:48:38.165Z,14268.00
2023-05-22T05:49:38.235Z,14824.00
2023-05-22T05:50:38.467Z,14796.00
2023-05-22T05:51:38.137Z,14344.00
2023-05-22T05:52:38.139Z,13972.00
2023-05-22T05:53:38.124Z,14036.00
2023-05-22T05:54:38.161Z,14500.00
2023-05-22T05:55:38.315Z,15184.00
2023-05-22T05:56:38.410Z,16352.00
2023-05-22T05:57:38.387Z,17632.00
2023-05-22T05:58:38.063Z,18688.00
2023-05-22T05:59:38.083Z,18848.00
2023-05-22T06:00:38.330Z,18720.00
2023-05-22T06:01:38.046Z,18720.00
2023-05-22T06:02:38.178Z,19456.00
2023-05-22T06:03:38.131Z,20224.00
2023-05-22T06:04:37.991Z,20800.00
2023-05-22T06:05:38.115Z,21184.00
2023-05-22T06:06:37.974Z,20256.00
2023-05-22T06:07:37.956Z,17024.00
2023-05-22T06:08:37.947Z,16864.00
2023-05-22T06:09:37.955Z,17312.00
2023-05-22T06:10:38.066Z,17312.00
2023-05-22T06:11:37.942Z,18240.00
2023-05-22T06:12:37.927Z,20032.00
2023-05-22T06:13:37.897Z,19264.00
2023-05-22T06:14:37.880Z,17024.00
2023-05-22T06:15:37.865Z,16064.00
2023-05-22T06:16:37.900Z,15168.00
2023-05-22T06:17:37.887Z,15340.00
2023-05-22T06:18:37.823Z,17088.00
2023-05-22T06:19:37.852Z,18400.00
2023-05-22T06:20:38.084Z,18560.00
2023-05-22T06:21:37.796Z,18112.00
2023-05-22T06:22:37.792Z,18272.00
2023-05-22T06:23:37.807Z,18944.00
2023-05-22T06:24:37.777Z,19392.00
2023-05-22T06:25:37.774Z,19552.00
2023-05-22T06:26:37.755Z,18656.00
2023-05-22T06:27:37.736Z,18464.00
2023-05-22T06:28:37.701Z,18496.00
2023-05-22T06:29:37.753Z,18528.00
2023-05-22T06:30:43.720Z,18464.00
2023-05-22T06:31:38.737Z,18592.00
2023-05-22T06:32:37.772Z,18496.00
2023-05-22T06:33:37.761Z,19136.00
2023-05-22T06:34:37.675Z,19744.00
2023-05-22T06:35:37.690Z,20352.00
2023-05-22T06:36:37.633Z,21696.00
2023-05-22T06:37:37.624Z,22784.00
2023-05-22T06:38:37.644Z,23776.00
2023-05-22T06:39:37.620Z,23744.00
2023-05-22T06:40:37.941Z,24096.00
2023-05-22T06:41:38.595Z,25056.00
2023-05-22T06:42:37.592Z,26016.00
2023-05-22T06:43:37.571Z,26048.00
2023-05-22T06:44:37.628Z,25664.00
2023-05-22T06:45:37.695Z,25760.00
2023-05-22T06:46:37.761Z,25472.00
2023-05-22T06:47:37.636Z,25888.00
2023-05-22T06:48:37.523Z,26592.00
2023-05-22T06:49:37.488Z,27776.00
2023-05-22T06:50:37.662Z,28032.00
2023-05-22T06:51:37.463Z,26048.00
2023-05-22T06:52:37.518Z,25792.00
2023-05-22T06:53:38.508Z,28224.00
2023-05-22T06:54:37.414Z,28608.00
2023-05-22T06:55:37.449Z,28736.00
2023-05-22T06:56:37.406Z,30400.00
2023-05-22T06:57:37.396Z,30944.00
2023-05-22T06:58:37.384Z,31424.00
2023-05-22T06:59:37.406Z,32032.00
2023-05-22T07:00:37.434Z,31968.00
2023-05-22T07:01:37.375Z,31552.00
2023-05-22T07:02:37.376Z,31520.00
2023-05-22T07:03:37.308Z,34848.00
2023-05-22T07:04:37.325Z,36672.00
2023-05-22T07:05:37.316Z,34880.00
2023-05-22T07:06:37.299Z,31296.00
2023-05-22T07:07:37.306Z,33664.00
2023-05-22T07:08:37.263Z,36736.00
2023-05-22T07:09:37.290Z,38464.00
2023-05-22T07:10:37.496Z,40128.00
2023-05-22T07:11:37.265Z,41024.00
2023-05-22T07:12:37.254Z,41440.00
2023-05-22T07:13:37.210Z,43072.00
2023-05-22T07:14:37.255Z,41984.00
2023-05-22T07:15:37.186Z,41440.00
2023-05-22T07:16:37.248Z,40064.00
2023-05-22T07:17:37.238Z,40576.00
2023-05-22T07:18:37.156Z,41344.00
2023-05-22T07:19:38.191Z,40384.00
2023-05-22T07:20:37.205Z,38400.00
2023-05-22T07:21:37.212Z,33952.00
2023-05-22T07:22:37.149Z,37952.00
2023-05-22T07:23:37.084Z,42112.00
2023-05-22T07:24:37.098Z,45024.00
2023-05-22T07:25:37.102Z,44512.00
2023-05-22T07:26:38.143Z,43872.00
2023-05-22T07:27:37.082Z,40768.00
2023-05-22T07:28:37.098Z,40064.00
2023-05-22T07:29:37.041Z,41312.00
2023-05-22T07:30:37.080Z,43264.00
2023-05-22T07:31:37.061Z,39840.00
2023-05-22T07:32:37.040Z,37184.00
2023-05-22T07:33:37.012Z,38240.00
2023-05-22T07:34:37.039Z,37440.00
2023-05-22T07:35:36.992Z,36640.00
2023-05-22T07:36:36.968Z,33280.00
2023-05-22T07:37:36.980Z,29984.00
2023-05-22T07:38:36.953Z,32032.00
2023-05-22T07:39:36.970Z,35424.00
2023-05-22T07:40:37.046Z,38976.00
2023-05-22T07:41:36.923Z,45472.00
2023-05-22T07:42:36.909Z,49632.00
2023-05-22T07:43:36.887Z,54144.00
2023-05-22T07:44:36.876Z,57792.00
2023-05-22T07:45:36.969Z,61216.00
2023-05-22T07:46:36.926Z,64416.00
2023-05-22T07:47:36.916Z,65760.00
2023-05-22T07:48:36.840Z,65856.00
2023-05-22T07:49:36.829Z,63968.00
2023-05-22T07:50:36.823Z,61056.00
2023-05-22T07:51:36.785Z,57568.00
2023-05-22T07:52:36.827Z,57440.00
2023-05-22T07:53:36.790Z,53952.00
2023-05-22T07:54:36.751Z,54272.00
2023-05-22T07:55:36.776Z,55616.00
2023-05-22T07:56:36.746Z,55616.00
2023-05-22T07:57:36.792Z,55616.00
2023-05-22T07:58:36.748Z,55072.00
2023-05-22T07:59:36.725Z,58240.00
2023-05-22T08:00:36.724Z,56928.00
2023-05-22T08:01:36.693Z,55968.00
2023-05-22T08:02:36.834Z,55040.00
2023-05-22T08:03:36.875Z,56352.00
2023-05-22T08:04:36.755Z,56096.00
2023-05-22T08:05:36.662Z,58592.00
2023-05-22T08:06:36.956Z,63424.00
2023-05-22T08:07:36.635Z,64992.00
2023-05-22T08:08:36.632Z,66912.00
2023-05-22T08:09:36.612Z,67200.00
2023-05-22T08:10:47.017Z,69600.00
2023-05-22T08:11:39.696Z,69792.00
2023-05-22T08:12:36.563Z,66752.00
2023-05-22T08:13:36.556Z,66976.00
2023-05-22T08:14:36.625Z,65888.00
2023-05-22T08:15:36.532Z,65600.00
2023-05-22T08:16:36.653Z,65120.00
2023-05-22T08:17:36.564Z,60320.00
2023-05-22T08:18:36.535Z,60416.00
2023-05-22T08:19:36.612Z,63232.00
2023-05-22T08:20:37.732Z,65824.00
2023-05-22T08:21:36.512Z,68576.00
2023-05-22T08:22:36.493Z,68096.00
2023-05-22T08:23:36.482Z,69152.00
2023-05-22T08:24:36.480Z,72960.00
2023-05-22T08:25:36.443Z,75264.00
2023-05-22T08:26:36.832Z,75776.00
2023-05-22T08:27:36.473Z,72160.00
2023-05-22T08:28:36.404Z,66432.00
2023-05-22T08:29:36.400Z,58304.00
2023-05-22T08:30:36.431Z,52512.00
2023-05-22T08:31:36.431Z,52352.00
2023-05-22T08:32:36.440Z,50080.00
2023-05-22T08:33:36.356Z,49312.00
2023-05-22T08:34:36.401Z,50496.00
2023-05-22T08:35:36.376Z,52064.00
2023-05-22T08:36:36.322Z,53280.00
2023-05-22T08:37:36.311Z,53952.00
2023-05-22T08:38:36.342Z,54688.00
2023-05-22T08:39:36.286Z,57472.00
2023-05-22T08:40:36.318Z,58848.00
2023-05-22T08:41:36.309Z,60960.00
2023-05-22T08:42:36.261Z,61600.00
2023-05-22T08:43:36.247Z,64352.00
2023-05-22T08:44:36.280Z,65728.00
2023-05-22T08:45:36.256Z,69696.00
2023-05-22T08:46:36.284Z,71712.00
2023-05-22T08:47:36.617Z,72864.00
2023-05-22T08:48:36.434Z,71872.00
2023-05-22T08:49:36.201Z,69312.00
2023-05-22T08:50:36.203Z,68288.00
2023-05-22T08:51:36.165Z,64512.00
2023-05-22T08:52:36.204Z,65984.00
2023-05-22T08:53:36.166Z,68288.00
2023-05-22T08:54:36.192Z,67168.00
2023-05-22T08:55:36.155Z,66656.00
2023-05-22T08:56:39.870Z,66944.00
2023-05-22T08:57:37.173Z,62976.00
2023-05-22T08:58:36.122Z,64960.00
2023-05-22T08:59:36.106Z,66944.00
2023-05-22T09:00:36.108Z,67584.00
2023-05-22T09:01:36.122Z,68096.00
2023-05-22T09:02:36.110Z,70496.00
2023-05-22T09:03:36.140Z,73408.00
2023-05-22T09:04:36.105Z,75328.00
2023-05-22T09:05:36.083Z,76896.00
2023-05-22T09:06:36.023Z,78240.00
2023-05-22T09:07:36.015Z,78464.00
2023-05-22T09:08:36.044Z,79520.00
2023-05-22T09:09:36.017Z,81152.00
2023-05-22T09:10:36.047Z,81120.00
2023-05-22T09:11:36.048Z,80640.00
2023-05-22T09:12:35.967Z,81408.00
2023-05-22T09:13:35.978Z,81984.00
2023-05-22T09:14:35.976Z,80672.00
2023-05-22T09:15:35.989Z,83136.00
2023-05-22T09:16:36.024Z,82752.00
2023-05-22T09:17:35.949Z,81632.00
2023-05-22T09:18:35.957Z,80544.00
2023-05-22T09:19:36.075Z,79520.00
2023-05-22T09:20:35.914Z,77728.00
2023-05-22T09:21:35.925Z,76320.00
2023-05-22T09:22:35.909Z,78336.00
2023-05-22T09:23:35.877Z,78784.00
2023-05-22T09:24:35.876Z,79552.00
2023-05-22T09:25:35.837Z,78816.00
2023-05-22T09:26:35.874Z,79744.00
2023-05-22T09:27:36.855Z,81024.00
2023-05-22T09:28:35.986Z,81632.00
2023-05-22T09:29:35.848Z,81664.00
2023-05-22T09:30:35.882Z,81504.00
2023-05-22T09:31:35.815Z,80320.00
2023-05-22T09:32:35.843Z,80992.00
2023-05-22T09:33:35.778Z,82048.00
2023-05-22T09:34:35.770Z,82368.00
2023-05-22T09:35:35.877Z,80000.00
2023-05-22T09:36:36.935Z,75424.00
2023-05-22T09:37:35.758Z,74720.00
2023-05-22T09:38:35.721Z,75104.00
2023-05-22T09:39:35.753Z,71840.00
2023-05-22T09:40:35.714Z,66464.00
2023-05-22T09:41:35.713Z,66496.00
2023-05-22T09:42:35.752Z,64896.00
2023-05-22T09:43:35.680Z,68896.00
2023-05-22T09:44:35.674Z,73728.00
2023-05-22T09:45:35.934Z,72128.00
2023-05-22T09:46:35.655Z,68096.00
2023-05-22T09:47:35.708Z,68416.00
2023-05-22T09:48:35.654Z,69248.00
2023-05-22T09:49:35.631Z,68960.00
2023-05-22T09:50:35.652Z,70560.00
2023-05-22T09:51:35.625Z,70112.00
2023-05-22T09:52:35.589Z,70720.00
2023-05-22T09:53:35.595Z,68992.00
2023-05-22T09:54:35.602Z,67968.00
2023-05-22T09:55:35.569Z,70880.00
2023-05-22T09:56:39.912Z,74624.00
2023-05-22T09:57:35.546Z,78240.00
2023-05-22T09:58:35.537Z,81312.00
2023-05-22T09:59:35.551Z,83008.00
2023-05-22T10:00:35.548Z,85600.00
2023-05-22T10:01:35.592Z,87040.00
2023-05-22T10:02:35.523Z,88192.00
2023-05-22T10:03:35.497Z,86464.00
2023-05-22T10:04:35.544Z,86432.00
2023-05-22T10:05:35.516Z,87008.00
2023-05-22T10:06:35.505Z,89024.00
2023-05-22T10:07:35.484Z,88736.00
2023-05-22T10:08:35.455Z,88416.00
2023-05-22T10:09:35.438Z,87840.00
2023-05-22T10:10:35.471Z,87392.00
2023-05-22T10:11:35.409Z,89792.00
2023-05-22T10:12:35.411Z,90368.00
2023-05-22T10:13:35.416Z,87936.00
2023-05-22T10:14:35.394Z,85344.00
2023-05-22T10:15:35.580Z,81888.00
2023-05-22T10:16:35.405Z,79040.00
2023-05-22T10:17:35.452Z,74240.00
2023-05-22T10:18:35.355Z,77408.00
2023-05-22T10:19:36.636Z,76352.00
2023-05-22T10:20:35.325Z,78080.00
2023-05-22T10:21:35.340Z,78272.00
2023-05-22T10:22:35.328Z,74720.00
2023-05-22T10:23:35.298Z,71264.00
2023-05-22T10:24:35.288Z,67648.00
2023-05-22T10:25:35.282Z,62496.00
2023-05-22T10:26:35.296Z,63584.00
2023-05-22T10:27:35.339Z,57760.00
2023-05-22T10:28:35.490Z,56608.00
2023-05-22T10:29:35.293Z,53664.00
2023-05-22T10:30:35.239Z,57568.00
2023-05-22T10:31:35.234Z,58752.00
2023-05-22T10:32:35.649Z,67136.00
2023-05-22T10:33:35.295Z,71232.00
2023-05-22T10:34:35.201Z,74784.00
2023-05-22T10:35:35.174Z,75520.00
2023-05-22T10:36:35.233Z,76992.00
2023-05-22T10:37:35.169Z,72256.00
2023-05-22T10:38:35.826Z,71072.00
2023-05-22T10:39:35.145Z,69760.00
2023-05-22T10:40:36.144Z,66016.00
2023-05-22T10:41:35.189Z,65888.00
2023-05-22T10:42:35.116Z,61888.00
2023-05-22T10:43:35.115Z,61696.00
2023-05-22T10:44:35.322Z,62848.00
2023-05-22T10:45:35.165Z,67520.00
2023-05-22T10:46:35.139Z,71424.00
2023-05-22T10:47:35.134Z,75936.00
2023-05-22T10:48:35.063Z,74752.00
2023-05-22T10:49:35.108Z,77696.00
2023-05-22T10:50:35.285Z,83264.00
2023-05-22T10:51:35.019Z,85280.00
2023-05-22T10:52:35.008Z,79712.00
2023-05-22T10:53:35.024Z,81248.00
2023-05-22T10:54:35.029Z,84608.00
2023-05-22T10:55:34.989Z,83296.00
2023-05-22T10:56:34.970Z,81632.00
2023-05-22T10:57:34.956Z,80672.00
2023-05-22T10:58:34.980Z,80064.00
2023-05-22T10:59:35.014Z,76768.00
2023-05-22T11:00:34.945Z,76320.00
2023-05-22T11:01:35.025Z,76128.00
2023-05-22T11:02:34.962Z,73728.00
2023-05-22T11:03:34.917Z,71648.00
2023-05-22T11:04:35.341Z,72640.00
2023-05-22T11:05:34.901Z,72576.00
2023-05-22T11:06:34.897Z,72608.00
2023-05-22T11:07:34.867Z,71680.00
2023-05-22T11:08:34.886Z,71744.00
2023-05-22T11:09:34.862Z,70720.00
2023-05-22T11:10:34.864Z,71200.00
2023-05-22T11:11:34.847Z,71488.00
2023-05-22T11:12:34.822Z,75456.00
2023-05-22T11:13:34.841Z,76768.00
2023-05-22T11:14:34.826Z,78016.00
2023-05-22T11:15:34.812Z,73824.00
2023-05-22T11:16:34.849Z,72128.00
2023-05-22T11:17:34.855Z,72832.00
2023-05-22T11:18:34.761Z,81984.00
2023-05-22T11:19:34.902Z,87072.00
2023-05-22T11:20:34.762Z,81600.00
2023-05-22T11:21:34.745Z,88960.00
2023-05-22T11:22:34.762Z,92704.00
2023-05-22T11:23:34.728Z,91136.00
2023-05-22T11:24:34.714Z,91456.00
2023-05-22T11:25:34.743Z,96032.00
2023-05-22T11:26:34.738Z,97184.00
2023-05-22T11:27:34.683Z,97632.00
2023-05-22T11:28:34.693Z,97056.00
2023-05-22T11:29:34.704Z,94016.00
2023-05-22T11:30:34.680Z,94432.00
2023-05-22T11:31:34.725Z,93184.00
2023-05-22T11:32:34.665Z,90560.00
2023-05-22T11:33:34.635Z,85696.00
2023-05-22T11:34:34.660Z,85600.00
2023-05-22T11:35:34.652Z,86784.00
2023-05-22T11:36:34.603Z,85216.00
2023-05-22T11:37:34.609Z,88576.00
2023-05-22T11:38:34.591Z,86784.00
2023-05-22T11:39:34.567Z,86752.00
2023-05-22T11:40:34.626Z,23616.00
2023-05-22T11:41:34.544Z,52288.00
2023-05-22T11:42:34.555Z,84000.00
2023-05-22T11:43:34.540Z,12896.00
2023-05-22T11:44:34.558Z,12152.00
2023-05-22T11:45:34.538Z,12932.00
2023-05-22T11:46:34.584Z,12964.00
2023-05-22T11:47:34.544Z,13428.00
2023-05-22T11:48:34.490Z,14364.00
2023-05-22T11:49:34.472Z,14976.00
2023-05-22T11:51:35.483Z,16100.00
2023-05-22T11:52:34.454Z,16512.00
2023-05-22T11:53:34.446Z,15100.00
2023-05-22T11:54:35.812Z,15168.00
2023-05-22T11:55:34.456Z,11812.00
2023-05-22T11:56:34.384Z,11820.00
2023-05-22T11:57:34.429Z,11876.00
2023-05-22T11:58:34.371Z,12244.00
2023-05-22T11:59:34.410Z,12484.00
2023-05-22T12:00:34.450Z,12860.00
2023-05-22T12:01:34.343Z,13352.00
2023-05-22T12:02:34.469Z,14456.00
2023-05-22T12:03:34.546Z,15288.00
2023-05-22T12:04:34.348Z,17120.00
2023-05-22T12:05:34.324Z,17696.00
2023-05-22T12:06:34.308Z,18016.00
2023-05-22T12:07:34.281Z,17408.00
2023-05-22T12:08:34.260Z,16072.00
2023-05-22T12:09:34.266Z,15116.00
2023-05-22T12:10:34.298Z,14704.00
2023-05-22T12:11:34.225Z,14464.00
2023-05-22T12:12:34.230Z,13964.00